Private Wetterstation Sandau
Wetterdaten: Samstag, 09.03.2013
Datum Zeit Temp. A. Feuchte A. Luftdruck Regen Wind Richtung Richtung Taupunkt Windchill
09.03.2013 00:01 1,2 C 78 % 1009,3 hPa 0,0 l/m 8,3 km/h (2 Bft) O-NO 67 -2,2 C -1,4 C
09.03.2013 00:06 1,2 C 78 % 1009,3 hPa 0,0 l/m 5,0 km/h (1 Bft) O-SO 112 -2,2 C -0,2 C
09.03.2013 00:11 1,2 C 78 % 1009,2 hPa 0,0 l/m 8,6 km/h (2 Bft) O-SO 112 -2,2 C -1,5 C
09.03.2013 00:16 1,2 C 78 % 1009,2 hPa 0,0 l/m 14,4 km/h (3 Bft) O-SO 112 -2,2 C -2,8 C
09.03.2013 00:21 1,1 C 78 % 1009,2 hPa 0,0 l/m 9,4 km/h (2 Bft) O 90 -2,3 C -1,8 C
09.03.2013 00:26 1,1 C 78 % 1009,1 hPa 0,0 l/m 18,4 km/h (3 Bft) SO 135 -2,3 C -3,6 C
09.03.2013 00:31 1,1 C 78 % 1009,2 hPa 0,0 l/m 18,4 km/h (3 Bft) O-NO 67 -2,3 C -3,6 C
09.03.2013 00:36 1,1 C 78 % 1009,0 hPa 0,0 l/m 15,5 km/h (3 Bft) O 90 -2,3 C -3,1 C
09.03.2013 00:41 1,1 C 78 % 1009,1 hPa 0,0 l/m 11,2 km/h (2 Bft) SO 135 -2,3 C -2,3 C
09.03.2013 00:46 1,1 C 78 % 1009,1 hPa 0,0 l/m 9,4 km/h (2 Bft) O-NO 67 -2,3 C -1,8 C
09.03.2013 00:51 1,1 C 78 % 1008,9 hPa 0,0 l/m 14,8 km/h (3 Bft) O 90 -2,3 C -3,0 C
09.03.2013 00:56 1,0 C 78 % 1009,0 hPa 0,0 l/m 6,8 km/h (2 Bft) O-SO 112 -2,4 C -1,2 C
09.03.2013 01:01 1,0 C 78 % 1008,9 hPa 0,0 l/m 9,0 km/h (2 Bft) SO 135 -2,4 C -1,9 C
09.03.2013 01:06 1,0 C 78 % 1009,0 hPa 0,0 l/m 14,8 km/h (3 Bft) O-SO 112 -2,4 C -3,1 C
09.03.2013 01:11 1,0 C 78 % 1009,1 hPa 0,0 l/m 15,1 km/h (3 Bft) O-SO 112 -2,4 C -3,2 C
09.03.2013 01:16 1,0 C 78 % 1009,1 hPa 0,0 l/m 8,3 km/h (2 Bft) O 90 -2,4 C -1,7 C
09.03.2013 01:21 1,0 C 78 % 1009,2 hPa 0,0 l/m 4,7 km/h (1 Bft) SO 135 -2,4 C -0,3 C
09.03.2013 01:26 0,9 C 78 % 1009,2 hPa 0,0 l/m 5,8 km/h (2 Bft) O 90 -2,5 C -0,9 C
09.03.2013 01:31 0,9 C 79 % 1009,1 hPa 0,0 l/m 6,1 km/h (2 Bft) O-SO 112 -2,3 C -1,0 C
09.03.2013 01:36 0,9 C 79 % 1009,1 hPa 0,0 l/m 6,1 km/h (2 Bft) O 90 -2,3 C -1,0 C
09.03.2013 01:41 0,9 C 79 % 1009,2 hPa 0,0 l/m 9,0 km/h (2 Bft) O-SO 112 -2,3 C -2,0 C
09.03.2013 01:46 0,9 C 79 % 1009,1 hPa 0,0 l/m 18,4 km/h (3 Bft) O 90 -2,3 C -3,9 C
09.03.2013 01:51 0,9 C 78 % 1009,1 hPa 0,0 l/m 9,7 km/h (2 Bft) O-SO 112 -2,5 C -2,2 C
09.03.2013 01:56 0,9 C 78 % 1009,0 hPa 0,0 l/m 8,3 km/h (2 Bft) O-SO 112 -2,5 C -1,8 C
09.03.2013 02:01 0,9 C 79 % 1009,1 hPa 0,0 l/m 15,1 km/h (3 Bft) O-SO 112 -2,3 C -3,3 C
09.03.2013 02:06 0,9 C 79 % 1008,9 hPa 0,0 l/m 8,6 km/h (2 Bft) O-SO 112 -2,3 C -1,9 C
09.03.2013 02:11 0,9 C 79 % 1009,0 hPa 0,0 l/m 11,5 km/h (2 Bft) O-SO 112 -2,3 C -2,6 C
09.03.2013 02:16 0,9 C 79 % 1008,7 hPa 0,0 l/m 6,8 km/h (2 Bft) NO 45 -2,3 C -1,3 C
09.03.2013 02:21 0,8 C 79 % 1008,9 hPa 0,0 l/m 6,5 km/h (2 Bft) O-NO 67 -2,4 C -1,3 C
09.03.2013 02:26 0,9 C 79 % 1008,9 hPa 0,0 l/m 4,0 km/h (1 Bft) O-SO 112 -2,3 C 0,9 C
09.03.2013 02:31 0,8 C 79 % 1008,9 hPa 0,0 l/m 2,2 km/h (1 Bft) O 90 -2,4 C 0,8 C
09.03.2013 02:36 0,8 C 79 % 1008,9 hPa 0,0 l/m 4,0 km/h (1 Bft) O-SO 112 -2,4 C 0,8 C
09.03.2013 02:41 0,8 C 79 % 1008,6 hPa 0,0 l/m 14,4 km/h (3 Bft) O-SO 112 -2,4 C -3,3 C
09.03.2013 02:46 0,8 C 79 % 1008,7 hPa 0,0 l/m 7,9 km/h (2 Bft) O-NO 67 -2,4 C -1,8 C
09.03.2013 02:51 0,8 C 79 % 1008,7 hPa 0,0 l/m 11,5 km/h (2 Bft) O 90 -2,4 C -2,7 C
09.03.2013 02:56 0,8 C 79 % 1008,6 hPa 0,0 l/m 8,3 km/h (2 Bft) SO 135 -2,4 C -1,9 C
09.03.2013 03:01 0,8 C 78 % 1008,7 hPa 0,0 l/m 9,4 km/h (2 Bft) O 90 -2,6 C -2,2 C
09.03.2013 03:06 0,8 C 78 % 1008,7 hPa 0,0 l/m 14,4 km/h (3 Bft) SO 135 -2,6 C -3,3 C
09.03.2013 03:11 0,8 C 78 % 1008,5 hPa 0,0 l/m 11,2 km/h (2 Bft) SO 135 -2,6 C -2,7 C
09.03.2013 03:16 0,7 C 79 % 1008,4 hPa 0,0 l/m 5,8 km/h (2 Bft) SO 135 -2,5 C -1,1 C
09.03.2013 03:21 0,7 C 78 % 1008,6 hPa 0,0 l/m 13,7 km/h (3 Bft) O 90 -2,7 C -3,3 C
09.03.2013 03:26 0,7 C 78 % 1008,4 hPa 0,0 l/m 4,7 km/h (1 Bft) O-NO 67 -2,7 C -0,7 C
09.03.2013 03:31 0,6 C 79 % 1008,4 hPa 0,0 l/m 6,5 km/h (2 Bft) O-SO 112 -2,6 C -1,5 C
09.03.2013 03:36 0,6 C 79 % 1008,5 hPa 0,0 l/m 4,7 km/h (1 Bft) O-SO 112 -2,6 C -0,8 C
09.03.2013 03:41 0,6 C 79 % 1008,4 hPa 0,0 l/m 1,1 km/h (1 Bft) SO 135 -2,6 C 0,6 C
09.03.2013 03:46 0,6 C 79 % 1008,4 hPa 0,0 l/m 6,1 km/h (2 Bft) SO 135 -2,6 C -1,4 C
09.03.2013 03:51 0,6 C 79 % 1008,4 hPa 0,0 l/m 11,2 km/h (2 Bft) O-SO 112 -2,6 C -2,9 C
09.03.2013 03:56 0,6 C 79 % 1008,5 hPa 0,0 l/m 10,8 km/h (2 Bft) SO 135 -2,6 C -2,8 C
09.03.2013 04:01 0,6 C 79 % 1008,3 hPa 0,0 l/m 18,0 km/h (3 Bft) SO 135 -2,6 C -4,2 C
09.03.2013 04:06 0,5 C 79 % 1008,2 hPa 0,0 l/m 10,1 km/h (2 Bft) O-SO 112 -2,7 C -2,7 C
09.03.2013 04:11 0,5 C 79 % 1008,3 hPa 0,0 l/m 13,3 km/h (3 Bft) SO 135 -2,7 C -3,5 C
09.03.2013 04:16 0,5 C 79 % 1008,4 hPa 0,0 l/m 5,8 km/h (2 Bft) O-SO 112 -2,7 C -1,4 C
09.03.2013 04:21 0,5 C 79 % 1008,2 hPa 0,0 l/m 10,8 km/h (2 Bft) O-SO 112 -2,7 C -2,9 C
09.03.2013 04:26 0,5 C 79 % 1008,1 hPa 0,0 l/m 7,9 km/h (2 Bft) O-NO 67 -2,7 C -2,1 C
09.03.2013 04:31 0,4 C 79 % 1008,1 hPa 0,0 l/m 13,3 km/h (3 Bft) O-NO 67 -2,8 C -3,6 C
09.03.2013 04:36 0,4 C 79 % 1008,2 hPa 0,0 l/m 8,6 km/h (2 Bft) O 90 -2,8 C -2,5 C
09.03.2013 04:41 0,4 C 79 % 1008,2 hPa 0,0 l/m 4,7 km/h (1 Bft) SO 135 -2,8 C -1,0 C
09.03.2013 04:46 0,4 C 79 % 1008,1 hPa 0,0 l/m 16,6 km/h (3 Bft) O-SO 112 -2,8 C -4,2 C
09.03.2013 04:51 0,4 C 79 % 1008,1 hPa 0,0 l/m 10,4 km/h (2 Bft) O-SO 112 -2,8 C -2,9 C
09.03.2013 04:56 0,4 C 79 % 1008,1 hPa 0,0 l/m 6,1 km/h (2 Bft) SO 135 -2,8 C -1,6 C
09.03.2013 05:01 0,4 C 79 % 1008,3 hPa 0,0 l/m 5,4 km/h (1 Bft) O 90 -2,8 C -1,3 C
09.03.2013 05:06 0,4 C 79 % 1008,2 hPa 0,0 l/m 9,4 km/h (2 Bft) O-NO 67 -2,8 C -2,7 C
09.03.2013 05:11 0,4 C 79 % 1008,2 hPa 0,0 l/m 4,7 km/h (1 Bft) SO 135 -2,8 C -1,0 C
09.03.2013 05:16 0,4 C 79 % 1008,3 hPa 0,0 l/m 4,7 km/h (1 Bft) O-SO 112 -2,8 C -1,0 C
09.03.2013 05:21 0,4 C 79 % 1008,2 hPa 0,0 l/m 15,5 km/h (3 Bft) SO 135 -2,8 C -4,0 C
09.03.2013 05:26 0,4 C 79 % 1008,2 hPa 0,0 l/m 7,6 km/h (2 Bft) SO 135 -2,8 C -2,1 C
09.03.2013 05:31 0,4 C 79 % 1008,2 hPa 0,0 l/m 3,2 km/h (1 Bft) O-NO 67 -2,8 C 0,4 C
09.03.2013 05:36 0,4 C 79 % 1008,2 hPa 0,0 l/m 10,1 km/h (2 Bft) SO 135 -2,8 C -2,9 C
09.03.2013 05:41 0,4 C 79 % 1008,0 hPa 0,0 l/m 7,9 km/h (2 Bft) O-SO 112 -2,8 C -2,2 C
09.03.2013 05:46 0,3 C 79 % 1008,0 hPa 0,0 l/m 4,7 km/h (1 Bft) SO 135 -2,9 C -1,1 C
09.03.2013 05:51 0,3 C 79 % 1008,0 hPa 0,0 l/m 2,5 km/h (1 Bft) SO 135 -2,9 C 0,3 C
09.03.2013 05:56 0,3 C 79 % 1007,8 hPa 0,0 l/m 8,3 km/h (2 Bft) SO 135 -2,9 C -2,5 C
09.03.2013 06:01 0,3 C 79 % 1007,8 hPa 0,0 l/m 11,2 km/h (2 Bft) SO 135 -2,9 C -3,3 C
09.03.2013 06:06 0,3 C 79 % 1007,9 hPa 0,0 l/m 6,1 km/h (2 Bft) O-NO 67 -2,9 C -1,7 C
09.03.2013 06:11 0,3 C 79 % 1007,8 hPa 0,0 l/m 4,0 km/h (1 Bft) O-SO 112 -2,9 C 0,3 C
09.03.2013 06:16 0,3 C 79 % 1007,9 hPa 0,0 l/m 11,2 km/h (2 Bft) O 90 -2,9 C -3,3 C
09.03.2013 06:21 0,2 C 79 % 1007,9 hPa 0,0 l/m 4,0 km/h (1 Bft) SO 135 -3,0 C 0,2 C
09.03.2013 06:26 0,2 C 79 % 1007,7 hPa 0,0 l/m 7,6 km/h (2 Bft) O 90 -3,0 C -2,4 C
09.03.2013 06:31 0,2 C 79 % 1007,6 hPa 0,0 l/m 6,1 km/h (2 Bft) O-NO 67 -3,0 C -1,8 C
09.03.2013 06:36 0,1 C 79 % 1007,7 hPa 0,0 l/m 11,9 km/h (2 Bft) SO 135 -3,1 C -3,7 C
09.03.2013 06:41 0,1 C 79 % 1007,7 hPa 0,0 l/m 12,2 km/h (2 Bft) SO 135 -3,1 C -3,7 C
09.03.2013 06:46 0,1 C 79 % 1007,6 hPa 0,0 l/m 15,1 km/h (3 Bft) SO 135 -3,1 C -4,3 C
09.03.2013 06:51 0,1 C 79 % 1007,6 hPa 0,0 l/m 9,0 km/h (2 Bft) O 90 -3,1 C -2,9 C
09.03.2013 06:56 0,1 C 79 % 1007,7 hPa 0,0 l/m 14,4 km/h (3 Bft) O 90 -3,1 C -4,2 C
09.03.2013 07:01 0,1 C 79 % 1007,8 hPa 0,0 l/m 16,9 km/h (3 Bft) O-SO 112 -3,1 C -4,6 C
09.03.2013 07:06 0,1 C 79 % 1008,0 hPa 0,0 l/m 16,2 km/h (3 Bft) O-SO 112 -3,1 C -4,5 C
09.03.2013 07:11 0,1 C 79 % 1007,7 hPa 0,0 l/m 10,1 km/h (2 Bft) O-SO 112 -3,1 C -3,2 C
09.03.2013 07:16 0,1 C 79 % 1007,7 hPa 0,0 l/m 10,1 km/h (2 Bft) O-SO 112 -3,1 C -3,2 C
09.03.2013 07:21 0,1 C 79 % 1007,9 hPa 0,0 l/m 7,6 km/h (2 Bft) SO 135 -3,1 C -2,5 C
09.03.2013 07:26 0,1 C 79 % 1007,9 hPa 0,0 l/m 13,7 km/h (3 Bft) SO 135 -3,1 C -4,0 C
09.03.2013 07:31 0,1 C 78 % 1008,1 hPa 0,0 l/m 7,6 km/h (2 Bft) S-SO 157 -3,3 C -2,5 C
09.03.2013 07:36 0,2 C 78 % 1007,9 hPa 0,0 l/m 10,4 km/h (2 Bft) SO 135 -3,2 C -3,2 C
09.03.2013 07:41 0,2 C 78 % 1008,0 hPa 0,0 l/m 4,7 km/h (1 Bft) O 90 -3,2 C -1,2 C
09.03.2013 07:46 0,2 C 78 % 1008,0 hPa 0,0 l/m 5,8 km/h (2 Bft) SO 135 -3,2 C -1,7 C
09.03.2013 07:51 0,2 C 78 % 1008,2 hPa 0,0 l/m 9,0 km/h (2 Bft) O 90 -3,2 C -2,8 C
09.03.2013 07:56 0,2 C 78 % 1008,2 hPa 0,0 l/m 8,6 km/h (2 Bft) O-NO 67 -3,2 C -2,7 C
09.03.2013 08:01 0,2 C 78 % 1008,0 hPa 0,0 l/m 5,4 km/h (1 Bft) SO 135 -3,2 C -1,5 C
09.03.2013 08:06 0,2 C 78 % 1008,1 hPa 0,0 l/m 10,1 km/h (2 Bft) O-NO 67 -3,2 C -3,1 C
09.03.2013 08:11 0,2 C 77 % 1008,1 hPa 0,0 l/m 14,4 km/h (3 Bft) SO 135 -3,3 C -4,1 C
09.03.2013 08:16 0,2 C 77 % 1008,1 hPa 0,0 l/m 10,8 km/h (2 Bft) O 90 -3,3 C -3,3 C
09.03.2013 08:21 0,2 C 77 % 1008,2 hPa 0,0 l/m 4,7 km/h (1 Bft) O 90 -3,3 C -1,2 C
09.03.2013 08:26 0,2 C 78 % 1007,9 hPa 0,0 l/m 20,9 km/h (4 Bft) S-SO 157 -3,2 C -5,1 C
09.03.2013 08:31 0,3 C 77 % 1008,1 hPa 0,0 l/m 7,9 km/h (2 Bft) S-SO 157 -3,2 C -2,4 C
09.03.2013 08:36 0,3 C 77 % 1008,2 hPa 0,0 l/m 10,1 km/h (2 Bft) O-NO 67 -3,2 C -3,0 C
09.03.2013 08:41 0,3 C 77 % 1008,0 hPa 0,0 l/m 5,8 km/h (2 Bft) O-SO 112 -3,2 C -1,6 C
09.03.2013 08:46 0,4 C 77 % 1007,9 hPa 0,0 l/m 6,1 km/h (2 Bft) O-SO 112 -3,1 C -1,6 C
09.03.2013 08:51 0,4 C 77 % 1008,1 hPa 0,0 l/m 23,0 km/h (4 Bft) O-SO 112 -3,1 C -5,1 C
09.03.2013 08:56 0,4 C 77 % 1008,0 hPa 0,0 l/m 7,6 km/h (2 Bft) O 90 -3,1 C -2,1 C
09.03.2013 09:01 0,4 C 77 % 1007,9 hPa 0,0 l/m 7,9 km/h (2 Bft) O 90 -3,1 C -2,2 C
09.03.2013 09:06 0,5 C 77 % 1007,7 hPa 0,0 l/m 9,7 km/h (2 Bft) O 90 -3,1 C -2,6 C
09.03.2013 09:11 0,6 C 77 % 1007,8 hPa 0,0 l/m 7,6 km/h (2 Bft) SO 135 -3,0 C -1,9 C
09.03.2013 09:16 0,6 C 77 % 1007,6 hPa 0,0 l/m 8,3 km/h (2 Bft) O-SO 112 -3,0 C -2,1 C
09.03.2013 09:21 0,7 C 76 % 1007,9 hPa 0,0 l/m 17,3 km/h (3 Bft) O-SO 112 -3,0 C -3,9 C
09.03.2013 09:26 0,8 C 76 % 1007,7 hPa 0,0 l/m 14,8 km/h (3 Bft) O-NO 67 -2,9 C -3,4 C
09.03.2013 09:31 0,7 C 76 % 1007,8 hPa 0,0 l/m 12,2 km/h (2 Bft) O-SO 112 -3,0 C -3,0 C
09.03.2013 09:36 0,8 C 76 % 1007,7 hPa 0,0 l/m 10,1 km/h (2 Bft) O-SO 112 -2,9 C -2,4 C
09.03.2013 09:41 0,8 C 76 % 1007,8 hPa 0,0 l/m 13,7 km/h (3 Bft) O-SO 112 -2,9 C -3,2 C
09.03.2013 09:46 0,8 C 76 % 1007,9 hPa 0,0 l/m 10,4 km/h (2 Bft) SO 135 -2,9 C -2,5 C
09.03.2013 09:51 0,8 C 76 % 1007,7 hPa 0,0 l/m 8,3 km/h (2 Bft) S-SO 157 -2,9 C -1,9 C
09.03.2013 09:56 0,8 C 76 % 1007,7 hPa 0,0 l/m 8,3 km/h (2 Bft) O-SO 112 -2,9 C -1,9 C
09.03.2013 10:01 0,8 C 76 % 1007,7 hPa 0,0 l/m 19,1 km/h (3 Bft) O 90 -2,9 C -4,1 C
09.03.2013 10:06 0,9 C 76 % 1007,7 hPa 0,0 l/m 25,2 km/h (4 Bft) O-SO 112 -2,8 C -4,8 C
09.03.2013 10:11 0,9 C 76 % 1007,6 hPa 0,0 l/m 10,4 km/h (2 Bft) SO 135 -2,8 C -2,3 C
09.03.2013 10:16 0,9 C 76 % 1007,4 hPa 0,0 l/m 13,7 km/h (3 Bft) O 90 -2,8 C -3,1 C
09.03.2013 10:21 1,1 C 76 % 1007,4 hPa 0,0 l/m 9,7 km/h (2 Bft) O 90 -2,6 C -1,9 C
09.03.2013 10:26 1,2 C 76 % 1007,4 hPa 0,0 l/m 7,9 km/h (2 Bft) O-SO 112 -2,5 C -1,3 C
09.03.2013 10:31 1,2 C 75 % 1007,1 hPa 0,0 l/m 13,3 km/h (3 Bft) O-SO 112 -2,7 C -2,6 C
09.03.2013 10:36 1,3 C 75 % 1007,4 hPa 0,0 l/m 19,1 km/h (3 Bft) SO 135 -2,6 C -3,5 C
09.03.2013 10:41 1,3 C 75 % 1007,3 hPa 0,0 l/m 7,2 km/h (2 Bft) O-SO 112 -2,6 C -1,0 C
09.03.2013 10:46 1,3 C 75 % 1007,3 hPa 0,0 l/m 11,5 km/h (2 Bft) O-NO 67 -2,6 C -2,1 C
09.03.2013 10:51 1,3 C 74 % 1007,2 hPa 0,0 l/m 19,1 km/h (3 Bft) O-SO 112 -2,8 C -3,5 C
09.03.2013 10:56 1,4 C 74 % 1007,3 hPa 0,0 l/m 9,7 km/h (2 Bft) O-SO 112 -2,7 C -1,6 C
09.03.2013 11:01 1,4 C 74 % 1007,3 hPa 0,0 l/m 17,3 km/h (3 Bft) SO 135 -2,7 C -3,1 C
09.03.2013 11:06 1,5 C 74 % 1007,2 hPa 0,0 l/m 13,3 km/h (3 Bft) O-NO 67 -2,6 C -2,2 C
09.03.2013 11:11 1,6 C 74 % 1007,3 hPa 0,0 l/m 13,0 km/h (3 Bft) O-NO 67 -2,5 C -2,1 C
09.03.2013 11:16 1,6 C 74 % 1007,0 hPa 0,0 l/m 10,1 km/h (2 Bft) O 90 -2,5 C -1,4 C
09.03.2013 11:21 1,8 C 74 % 1007,1 hPa 0,0 l/m 11,2 km/h (2 Bft) O-SO 112 -2,3 C -1,4 C
09.03.2013 11:26 1,8 C 73 % 1007,2 hPa 0,0 l/m 15,1 km/h (3 Bft) O 90 -2,5 C -2,2 C
09.03.2013 11:31 1,8 C 74 % 1007,1 hPa 0,0 l/m 19,4 km/h (3 Bft) O 90 -2,3 C -2,9 C
09.03.2013 11:36 1,8 C 73 % 1007,1 hPa 0,0 l/m 5,8 km/h (2 Bft) O 90 -2,5 C 0,1 C
09.03.2013 11:41 1,8 C 73 % 1007,1 hPa 0,0 l/m 10,8 km/h (2 Bft) SO 135 -2,5 C -1,4 C
09.03.2013 11:46 1,9 C 74 % 1007,1 hPa 0,0 l/m 7,2 km/h (2 Bft) O-NO 67 -2,2 C -0,3 C
09.03.2013 11:51 1,9 C 73 % 1007,0 hPa 0,0 l/m 6,5 km/h (2 Bft) O 90 -2,4 C -0,0 C
09.03.2013 11:56 1,9 C 73 % 1006,9 hPa 0,0 l/m 17,6 km/h (3 Bft) O 90 -2,4 C -2,5 C
09.03.2013 12:01 1,9 C 73 % 1006,9 hPa 0,0 l/m 18,7 km/h (3 Bft) O 90 -2,4 C -2,7 C
09.03.2013 12:06 1,9 C 73 % 1007,0 hPa 0,0 l/m 14,8 km/h (3 Bft) SO 135 -2,4 C -2,0 C
09.03.2013 12:11 1,9 C 73 % 1007,0 hPa 0,0 l/m 18,0 km/h (3 Bft) O-SO 112 -2,4 C -2,6 C
09.03.2013 12:16 1,9 C 74 % 1006,9 hPa 0,0 l/m 11,2 km/h (2 Bft) O-SO 112 -2,2 C -1,3 C
09.03.2013 12:21 1,9 C 73 % 1006,8 hPa 0,0 l/m 18,4 km/h (3 Bft) O-NO 67 -2,4 C -2,6 C
09.03.2013 12:26 1,9 C 73 % 1006,7 hPa 0,0 l/m 18,7 km/h (3 Bft) O-SO 112 -2,4 C -2,7 C
09.03.2013 12:31 1,9 C 73 % 1006,7 hPa 0,0 l/m 4,0 km/h (1 Bft) S-SO 157 -2,4 C 1,9 C
09.03.2013 12:36 1,9 C 74 % 1006,6 hPa 0,0 l/m 26,6 km/h (4 Bft) O 90 -2,2 C -3,6 C
09.03.2013 12:41 1,9 C 74 % 1006,5 hPa 0,0 l/m 25,9 km/h (4 Bft) O-SO 112 -2,2 C -3,6 C
09.03.2013 12:46 1,8 C 75 % 1006,6 hPa 0,0 l/m 14,4 km/h (3 Bft) O-NO 67 -2,1 C -2,1 C
09.03.2013 12:51 1,8 C 76 % 1006,5 hPa 0,0 l/m 13,3 km/h (3 Bft) O-SO 112 -2,0 C -1,9 C
09.03.2013 12:56 1,6 C 77 % 1006,5 hPa 0,0 l/m 14,8 km/h (3 Bft) O-SO 112 -2,0 C -2,4 C
09.03.2013 13:01 1,6 C 77 % 1006,6 hPa 0,0 l/m 6,1 km/h (2 Bft) O 90 -2,0 C -0,2 C
09.03.2013 13:06 1,6 C 77 % 1006,7 hPa 0,0 l/m 13,7 km/h (3 Bft) O-NO 67 -2,0 C -2,2 C
09.03.2013 13:11 1,7 C 77 % 1006,6 hPa 0,0 l/m 5,4 km/h (1 Bft) O-SO 112 -1,9 C 0,2 C
09.03.2013 13:16 1,8 C 78 % 1006,5 hPa 0,0 l/m 8,3 km/h (2 Bft) SO 135 -1,6 C -0,7 C
09.03.2013 13:21 1,6 C 79 % 1006,5 hPa 0,0 l/m 8,3 km/h (2 Bft) SO 135 -1,6 C -0,9 C
09.03.2013 13:26 1,6 C 80 % 1006,5 hPa 0,0 l/m 5,8 km/h (2 Bft) S-SO 157 -1,5 C -0,1 C
09.03.2013 13:31 1,4 C 80 % 1006,4 hPa 0,0 l/m 6,8 km/h (2 Bft) SO 135 -1,7 C -0,7 C
09.03.2013 13:36 1,4 C 81 % 1006,4 hPa 0,0 l/m 7,9 km/h (2 Bft) O 90 -1,5 C -1,1 C
09.03.2013 13:41 1,4 C 81 % 1006,3 hPa 0,0 l/m 16,6 km/h (3 Bft) O-SO 112 -1,5 C -3,0 C
09.03.2013 13:46 1,4 C 81 % 1006,3 hPa 0,0 l/m 8,3 km/h (2 Bft) SO 135 -1,5 C -1,2 C
09.03.2013 13:51 1,3 C 82 % 1006,2 hPa 0,0 l/m 5,8 km/h (2 Bft) O-SO 112 -1,4 C -0,5 C
09.03.2013 13:56 1,3 C 82 % 1006,2 hPa 0,0 l/m 6,5 km/h (2 Bft) SO 135 -1,4 C -0,7 C
09.03.2013 14:01 1,3 C 83 % 1006,1 hPa 0,0 l/m 5,8 km/h (2 Bft) O-SO 112 -1,3 C -0,5 C
09.03.2013 14:06 1,3 C 83 % 1005,9 hPa 0,0 l/m 7,9 km/h (2 Bft) SO 135 -1,3 C -1,2 C
09.03.2013 14:11 1,3 C 83 % 1005,9 hPa 0,0 l/m 6,1 km/h (2 Bft) O-NO 67 -1,3 C -0,6 C
09.03.2013 14:16 1,3 C 83 % 1005,9 hPa 0,0 l/m 18,4 km/h (3 Bft) O-SO 112 -1,3 C -3,4 C
09.03.2013 14:21 1,3 C 83 % 1005,9 hPa 0,0 l/m 7,2 km/h (2 Bft) O-SO 112 -1,3 C -1,0 C
09.03.2013 14:26 1,3 C 83 % 1006,0 hPa 0,0 l/m 9,7 km/h (2 Bft) O-SO 112 -1,3 C -1,7 C
09.03.2013 14:31 1,3 C 83 % 1006,0 hPa 0,0 l/m 16,2 km/h (3 Bft) S-SO 157 -1,3 C -3,0 C
09.03.2013 14:36 1,3 C 83 % 1006,2 hPa 0,0 l/m 4,0 km/h (1 Bft) O-SO 112 -1,3 C 1,3 C
09.03.2013 14:41 1,2 C 83 % 1006,1 hPa 0,0 l/m 6,1 km/h (2 Bft) O 90 -1,4 C -0,7 C
09.03.2013 14:46 1,1 C 84 % 1006,1 hPa 0,0 l/m 17,3 km/h (3 Bft) O-SO 112 -1,3 C -3,4 C
09.03.2013 14:51 1,0 C 85 % 1006,2 hPa 0,0 l/m 10,4 km/h (2 Bft) O-SO 112 -1,2 C -2,2 C
09.03.2013 14:56 0,9 C 85 % 1006,1 hPa 0,0 l/m 7,6 km/h (2 Bft) O 90 -1,3 C -1,6 C
09.03.2013 15:01 0,9 C 86 % 1006,0 hPa 0,0 l/m 6,1 km/h (2 Bft) O 90 -1,2 C -1,0 C
09.03.2013 15:06 0,8 C 86 % 1005,9 hPa 0,0 l/m 20,2 km/h (4 Bft) O-SO 112 -1,3 C -4,3 C
09.03.2013 15:11 0,7 C 87 % 1006,0 hPa 0,0 l/m 16,2 km/h (3 Bft) O-SO 112 -1,2 C -3,8 C
09.03.2013 15:16 0,7 C 87 % 1005,9 hPa 0,0 l/m 10,8 km/h (2 Bft) SO 135 -1,2 C -2,7 C
09.03.2013 15:21 0,7 C 87 % 1005,9 hPa 0,0 l/m 15,5 km/h (3 Bft) O-SO 112 -1,2 C -3,6 C
09.03.2013 15:26 0,7 C 87 % 1005,9 hPa 0,0 l/m 5,0 km/h (1 Bft) O 90 -1,2 C -0,8 C
09.03.2013 15:31 0,6 C 87 % 1005,9 hPa 0,0 l/m 8,3 km/h (2 Bft) SO 135 -1,3 C -2,1 C
09.03.2013 15:36 0,6 C 87 % 1005,8 hPa 0,0 l/m 10,8 km/h (2 Bft) SO 135 -1,3 C -2,8 C
09.03.2013 15:41 0,6 C 88 % 1005,9 hPa 0,0 l/m 13,0 km/h (3 Bft) O-SO 112 -1,2 C -3,3 C
09.03.2013 15:46 0,5 C 88 % 1005,9 hPa 0,0 l/m 8,3 km/h (2 Bft) O-NO 67 -1,3 C -2,2 C
09.03.2013 15:51 0,5 C 88 % 1005,8 hPa 0,0 l/m 9,0 km/h (2 Bft) O-SO 112 -1,3 C -2,4 C
09.03.2013 15:56 0,5 C 89 % 1005,7 hPa 0,0 l/m 12,2 km/h (2 Bft) O-SO 112 -1,1 C -3,2 C
09.03.2013 16:01 0,5 C 89 % 1005,7 hPa 0,0 l/m 14,8 km/h (3 Bft) O-SO 112 -1,1 C -3,8 C
09.03.2013 16:06 0,5 C 89 % 1005,7 hPa 0,0 l/m 5,8 km/h (2 Bft) O 90 -1,1 C -1,4 C
09.03.2013 16:11 0,4 C 89 % 1005,6 hPa 0,0 l/m 14,8 km/h (3 Bft) O-SO 112 -1,2 C -3,9 C
09.03.2013 16:16 0,4 C 89 % 1005,7 hPa 0,0 l/m 5,8 km/h (2 Bft) SO 135 -1,2 C -1,5 C
09.03.2013 16:21 0,4 C 89 % 1005,7 hPa 0,0 l/m 6,5 km/h (2 Bft) O-SO 112 -1,2 C -1,8 C
09.03.2013 16:26 0,4 C 89 % 1005,6 hPa 0,0 l/m 4,0 km/h (1 Bft) O-NO 67 -1,2 C 0,4 C
09.03.2013 16:31 0,4 C 90 % 1005,6 hPa 0,0 l/m 6,5 km/h (2 Bft) O 90 -1,0 C -1,8 C
09.03.2013 16:36 0,4 C 90 % 1005,6 hPa 0,0 l/m 10,4 km/h (2 Bft) SO 135 -1,0 C -2,9 C
09.03.2013 16:41 0,4 C 90 % 1005,6 hPa 0,0 l/m 12,2 km/h (2 Bft) SO 135 -1,0 C -3,4 C
09.03.2013 16:46 0,4 C 90 % 1005,6 hPa 0,0 l/m 11,2 km/h (2 Bft) SO 135 -1,0 C -3,1 C
09.03.2013 16:51 0,4 C 90 % 1005,5 hPa 0,0 l/m 7,2 km/h (2 Bft) O-SO 112 -1,0 C -2,0 C
09.03.2013 16:56 0,4 C 90 % 1005,4 hPa 0,0 l/m 7,6 km/h (2 Bft) NO 45 -1,0 C -2,1 C
09.03.2013 17:01 0,3 C 90 % 1005,3 hPa 0,0 l/m 6,5 km/h (2 Bft) SO 135 -1,1 C -1,9 C
09.03.2013 17:06 0,3 C 90 % 1005,3 hPa 0,0 l/m 6,8 km/h (2 Bft) SO 135 -1,1 C -2,0 C
09.03.2013 17:11 0,3 C 90 % 1005,3 hPa 0,0 l/m 10,1 km/h (2 Bft) O 90 -1,1 C -3,0 C
09.03.2013 17:16 0,3 C 90 % 1005,3 hPa 0,0 l/m 7,6 km/h (2 Bft) S-SO 157 -1,1 C -2,3 C
09.03.2013 17:21 0,4 C 90 % 1005,3 hPa 0,0 l/m 10,1 km/h (2 Bft) O 90 -1,0 C -2,9 C
09.03.2013 17:26 0,3 C 90 % 1005,3 hPa 0,0 l/m 7,6 km/h (2 Bft) O 90 -1,1 C -2,3 C
09.03.2013 17:31 0,3 C 90 % 1005,4 hPa 0,0 l/m 9,4 km/h (2 Bft) O-NO 67 -1,1 C -2,8 C
09.03.2013 17:36 0,3 C 91 % 1005,2 hPa 0,0 l/m 11,5 km/h (2 Bft) O-SO 112 -1,0 C -3,3 C
09.03.2013 17:41 0,3 C 91 % 1005,3 hPa 0,0 l/m 8,6 km/h (2 Bft) SO 135 -1,0 C -2,6 C
09.03.2013 17:46 0,3 C 91 % 1005,3 hPa 0,0 l/m 4,7 km/h (1 Bft) SO 135 -1,0 C -1,1 C
09.03.2013 17:51 0,3 C 91 % 1005,4 hPa 0,0 l/m 10,4 km/h (2 Bft) O 90 -1,0 C -3,1 C
09.03.2013 17:56 0,2 C 91 % 1005,4 hPa 0,5 l/m 8,3 km/h (2 Bft) S-SO 157 -1,1 C -2,6 C
09.03.2013 18:01 0,2 C 91 % 1005,5 hPa 0,0 l/m 19,4 km/h (3 Bft) O-NO 67 -1,1 C -4,9 C
09.03.2013 18:06 0,2 C 91 % 1005,5 hPa 0,0 l/m 12,6 km/h (3 Bft) S-SO 157 -1,1 C -3,7 C
09.03.2013 18:11 0,2 C 91 % 1005,5 hPa 0,0 l/m 5,8 km/h (2 Bft) SO 135 -1,1 C -1,7 C
09.03.2013 18:16 0,2 C 91 % 1005,5 hPa 0,0 l/m 5,0 km/h (1 Bft) O-NO 67 -1,1 C -1,4 C
09.03.2013 18:21 0,2 C 90 % 1005,7 hPa 0,0 l/m 2,9 km/h (1 Bft) O 90 -1,2 C 0,2 C
09.03.2013 18:26 0,2 C 91 % 1005,7 hPa 0,0 l/m 9,4 km/h (2 Bft) O-SO 112 -1,1 C -2,9 C
09.03.2013 18:31 0,1 C 91 % 1005,8 hPa 0,0 l/m 10,4 km/h (2 Bft) O-SO 112 -1,2 C -3,3 C
09.03.2013 18:36 0,1 C 91 % 1005,6 hPa 0,0 l/m 10,8 km/h (2 Bft) SO 135 -1,2 C -3,4 C
09.03.2013 18:41 0,1 C 91 % 1005,6 hPa 0,0 l/m 8,3 km/h (2 Bft) O 90 -1,2 C -2,7 C
09.03.2013 18:46 0,1 C 91 % 1005,6 hPa 0,0 l/m 10,1 km/h (2 Bft) O-SO 112 -1,2 C -3,2 C
09.03.2013 18:51 0,1 C 90 % 1005,6 hPa 0,0 l/m 8,6 km/h (2 Bft) O-NO 67 -1,3 C -2,8 C
09.03.2013 18:56 0,1 C 90 % 1005,6 hPa 0,0 l/m 6,8 km/h (2 Bft) O-SO 112 -1,3 C -2,2 C
09.03.2013 19:01 0,1 C 90 % 1005,5 hPa 0,0 l/m 10,8 km/h (2 Bft) O-SO 112 -1,3 C -3,4 C
09.03.2013 19:06 0,1 C 90 % 1005,5 hPa 0,0 l/m 11,2 km/h (2 Bft) SO 135 -1,3 C -3,5 C
09.03.2013 19:11 0,1 C 90 % 1005,5 hPa 0,0 l/m 14,4 km/h (3 Bft) O 90 -1,3 C -4,2 C
09.03.2013 19:16 0,1 C 90 % 1005,5 hPa 0,0 l/m 6,1 km/h (2 Bft) S-SO 157 -1,3 C -1,9 C
09.03.2013 19:21 0,1 C 90 % 1005,4 hPa 0,0 l/m 5,8 km/h (2 Bft) O 90 -1,3 C -1,8 C
09.03.2013 19:26 0,0 C 90 % 1005,4 hPa 0,0 l/m 9,7 km/h (2 Bft) O-SO 112 -1,4 C -3,2 C
09.03.2013 19:31 0,1 C 90 % 1005,3 hPa 0,0 l/m 6,1 km/h (2 Bft) O 90 -1,3 C -1,9 C
09.03.2013 19:36 0,1 C 90 % 1005,2 hPa 0,0 l/m 9,7 km/h (2 Bft) O-SO 112 -1,3 C -3,1 C
09.03.2013 19:41 0,1 C 90 % 1005,2 hPa 0,0 l/m 5,0 km/h (1 Bft) SO 135 -1,3 C -1,5 C
09.03.2013 19:46 0,0 C 90 % 1005,3 hPa 0,0 l/m 15,5 km/h (3 Bft) O 90 -1,4 C -4,5 C
09.03.2013 19:51 0,0 C 90 % 1005,3 hPa 0,0 l/m 6,5 km/h (2 Bft) O-SO 112 -1,4 C -2,2 C
09.03.2013 19:56 0,0 C 90 % 1005,3 hPa 0,0 l/m 10,4 km/h (2 Bft) SO 135 -1,4 C -3,4 C
09.03.2013 20:01 -0,1 C 90 % 1005,2 hPa 0,0 l/m 8,3 km/h (2 Bft) S-SO 157 -1,5 C -2,9 C
09.03.2013 20:06 -0,1 C 90 % 1005,1 hPa 0,0 l/m 16,6 km/h (3 Bft) O-NO 67 -1,5 C -4,8 C
09.03.2013 20:11 -0,1 C 90 % 1005,0 hPa 0,0 l/m 11,2 km/h (2 Bft) O-SO 112 -1,5 C -3,7 C
09.03.2013 20:16 -0,1 C 90 % 1005,0 hPa 0,0 l/m 11,9 km/h (2 Bft) SO 135 -1,5 C -3,9 C
09.03.2013 20:21 -0,1 C 90 % 1005,0 hPa 0,0 l/m 9,4 km/h (2 Bft) O-SO 112 -1,5 C -3,3 C
09.03.2013 20:26 -0,1 C 90 % 1005,1 hPa 0,0 l/m 6,5 km/h (2 Bft) O-NO 67 -1,5 C -2,3 C
09.03.2013 20:31 -0,2 C 90 % 1004,9 hPa 0,0 l/m 11,9 km/h (2 Bft) SO 135 -1,6 C -4,0 C
09.03.2013 20:36 -0,2 C 90 % 1004,9 hPa 0,0 l/m 12,6 km/h (3 Bft) O-NO 67 -1,6 C -4,2 C
09.03.2013 20:41 -0,2 C 90 % 1004,9 hPa 0,0 l/m 15,8 km/h (3 Bft) SO 135 -1,6 C -4,8 C
09.03.2013 20:46 -0,2 C 90 % 1004,8 hPa 0,0 l/m 12,2 km/h (2 Bft) O-SO 112 -1,6 C -4,1 C
09.03.2013 20:51 -0,2 C 90 % 1004,8 hPa 0,0 l/m 5,0 km/h (1 Bft) SO 135 -1,6 C -1,8 C
09.03.2013 20:56 -0,2 C 90 % 1004,9 hPa 0,0 l/m 14,8 km/h (3 Bft) O 90 -1,6 C -4,6 C
09.03.2013 21:01 -0,3 C 90 % 1004,9 hPa 0,0 l/m 6,5 km/h (2 Bft) O-SO 112 -1,7 C -2,6 C
09.03.2013 21:06 -0,3 C 90 % 1005,0 hPa 0,0 l/m 8,6 km/h (2 Bft) O 90 -1,7 C -3,3 C
09.03.2013 21:11 -0,4 C 90 % 1004,9 hPa 0,0 l/m 7,2 km/h (2 Bft) SO 135 -1,8 C -2,9 C
09.03.2013 21:16 -0,4 C 90 % 1004,8 hPa 0,0 l/m 15,1 km/h (3 Bft) S-SO 157 -1,8 C -4,9 C
09.03.2013 21:21 -0,4 C 90 % 1005,0 hPa 0,0 l/m 8,6 km/h (2 Bft) O-NO 67 -1,8 C -3,4 C
09.03.2013 21:26 -0,4 C 90 % 1004,8 hPa 0,0 l/m 4,7 km/h (1 Bft) O-SO 112 -1,8 C -1,9 C
09.03.2013 21:31 -0,4 C 90 % 1004,8 hPa 0,0 l/m 17,3 km/h (3 Bft) SO 135 -1,8 C -5,3 C
09.03.2013 21:36 -0,4 C 90 % 1004,7 hPa 0,0 l/m 14,8 km/h (3 Bft) O 90 -1,8 C -4,9 C
09.03.2013 21:41 -0,4 C 90 % 1004,9 hPa 0,0 l/m 6,5 km/h (2 Bft) SO 135 -1,8 C -2,7 C
09.03.2013 21:46 -0,4 C 90 % 1004,7 hPa 0,0 l/m 10,1 km/h (2 Bft) SO 135 -1,8 C -3,8 C
09.03.2013 21:51 -0,4 C 90 % 1004,6 hPa 0,0 l/m 10,8 km/h (2 Bft) O-SO 112 -1,8 C -4,0 C
09.03.2013 21:56 -0,4 C 90 % 1004,6 hPa 0,0 l/m 14,0 km/h (3 Bft) S-SO 157 -1,8 C -4,7 C
09.03.2013 22:01 -0,4 C 90 % 1004,5 hPa 0,0 l/m 11,9 km/h (2 Bft) SO 135 -1,8 C -4,3 C
09.03.2013 22:06 -0,4 C 90 % 1004,5 hPa 0,0 l/m 19,1 km/h (3 Bft) SO 135 -1,8 C -5,6 C
09.03.2013 22:11 -0,4 C 90 % 1004,6 hPa 0,0 l/m 8,3 km/h (2 Bft) SO 135 -1,8 C -3,3 C
09.03.2013 22:16 -0,4 C 90 % 1004,6 hPa 0,0 l/m 14,4 km/h (3 Bft) O-NO 67 -1,8 C -4,8 C
09.03.2013 22:21 -0,5 C 90 % 1004,5 hPa 0,0 l/m 10,1 km/h (2 Bft) O 90 -1,9 C -3,9 C
09.03.2013 22:26 -0,5 C 90 % 1004,5 hPa 0,0 l/m 16,6 km/h (3 Bft) SO 135 -1,9 C -5,3 C
09.03.2013 22:31 -0,5 C 90 % 1004,6 hPa 0,0 l/m 10,8 km/h (2 Bft) O-SO 112 -1,9 C -4,1 C
09.03.2013 22:36 -0,5 C 90 % 1004,4 hPa 0,0 l/m 9,4 km/h (2 Bft) O-SO 112 -1,9 C -3,7 C
09.03.2013 22:41 -0,5 C 90 % 1004,2 hPa 0,0 l/m 6,1 km/h (2 Bft) O 90 -1,9 C -2,6 C
09.03.2013 22:46 -0,4 C 90 % 1004,4 hPa 0,0 l/m 10,4 km/h (2 Bft) O-SO 112 -1,8 C -3,9 C
09.03.2013 22:51 -0,4 C 90 % 1004,4 hPa 0,0 l/m 13,7 km/h (3 Bft) O 90 -1,8 C -4,7 C
09.03.2013 22:56 -0,5 C 90 % 1004,3 hPa 0,0 l/m 7,6 km/h (2 Bft) S-SO 157 -1,9 C -3,2 C
09.03.2013 23:01 -0,5 C 90 % 1004,4 hPa 0,0 l/m 6,5 km/h (2 Bft) O 90 -1,9 C -2,8 C
09.03.2013 23:06 -0,5 C 90 % 1004,4 hPa 0,0 l/m 4,7 km/h (1 Bft) O 90 -1,9 C -2,0 C
09.03.2013 23:11 -0,5 C 90 % 1004,2 hPa 0,0 l/m 13,3 km/h (3 Bft) O-SO 112 -1,9 C -4,7 C
09.03.2013 23:16 -0,6 C 90 % 1004,1 hPa 0,0 l/m 7,2 km/h (2 Bft) SO 135 -2,0 C -3,2 C
09.03.2013 23:21 -0,6 C 90 % 1004,0 hPa 0,0 l/m 6,5 km/h (2 Bft) O 90 -2,0 C -2,9 C
09.03.2013 23:26 -0,6 C 91 % 1004,0 hPa 0,0 l/m 5,8 km/h (2 Bft) O 90 -1,9 C -2,6 C
09.03.2013 23:31 -0,6 C 91 % 1004,0 hPa 0,0 l/m 19,4 km/h (3 Bft) O 90 -1,9 C -5,9 C
09.03.2013 23:36 -0,6 C 91 % 1003,9 hPa 0,0 l/m 5,0 km/h (1 Bft) SO 135 -1,9 C -2,3 C
09.03.2013 23:41 -0,6 C 91 % 1003,6 hPa 0,0 l/m 13,3 km/h (3 Bft) SO 135 -1,9 C -4,8 C
09.03.2013 23:46 -0,7 C 91 % 1003,7 hPa 0,0 l/m 12,2 km/h (2 Bft) O-SO 112 -2,0 C -4,7 C
09.03.2013 23:51 -0,7 C 91 % 1003,6 hPa 0,0 l/m 5,8 km/h (2 Bft) O 90 -2,0 C -2,7 C
09.03.2013 23:56 -0,7 C 91 % 1003,6 hPa 0,0 l/m 15,8 km/h (3 Bft) O-SO 112 -2,0 C -5,4 C
_ Min-Zeit 23:46 11:26 23:41 - 03:41 - - 08:11 23:31
Minimum _ -0,7 C 73 % 1003,6 hPa - 1,1 km/h (1 Bft) - - -3,3 C -5,9 C
_ Max-Zeit 11:46 17:36 00:01 17:56 12:36 - - 17:36 12:31
Maximum _ 1,9 C 91 % 1009,3 hPa 0,5 l/m 26,6 km/h
O (4 Bft)
- - -1,0 C 1,9 C
Durchschnitt _ 0,5 C 82 % 1006,8 hPa #0,5 l/m 10,3 km/h (2 Bft) O-SO - -2,1 C -2,5 C
(c) by David Heller